createdAt,value
2023-03-04T00:00:10.567Z,158.00
2023-03-04T00:00:45.802Z,158.00
2023-03-04T00:01:18.191Z,158.00
2023-03-04T00:01:50.745Z,156.67
2023-03-04T00:02:23.524Z,154.33
2023-03-04T00:02:56.028Z,154.00
2023-03-04T00:03:28.357Z,154.33
2023-03-04T00:04:00.653Z,155.00
2023-03-04T00:04:32.979Z,154.33
2023-03-04T00:05:05.675Z,154.00
2023-03-04T00:05:38.246Z,154.67
2023-03-04T00:06:10.633Z,155.00
2023-03-04T00:06:42.916Z,156.00
2023-03-04T00:07:17.030Z,156.33
2023-03-04T00:07:49.479Z,157.33
2023-03-04T00:08:21.776Z,158.33
2023-03-04T00:08:54.254Z,159.67
2023-03-04T00:09:26.941Z,161.33
2023-03-04T00:09:59.218Z,164.33
2023-03-04T00:10:31.610Z,171.00
2023-03-04T00:11:03.981Z,174.33
2023-03-04T00:11:36.509Z,174.67
2023-03-04T00:12:08.892Z,175.00
2023-03-04T00:12:41.324Z,175.00
2023-03-04T00:13:13.646Z,174.67
2023-03-04T00:13:45.985Z,174.33
2023-03-04T00:14:18.354Z,174.00
2023-03-04T00:14:50.670Z,173.67
2023-03-04T00:15:22.966Z,172.67
2023-03-04T00:15:55.272Z,167.67
2023-03-04T00:16:27.655Z,159.33
2023-03-04T00:17:00.118Z,151.67
2023-03-04T00:17:32.451Z,145.33
2023-03-04T00:18:04.838Z,141.33
2023-03-04T00:18:37.243Z,144.67
2023-03-04T00:19:11.193Z,147.33
2023-03-04T00:19:43.574Z,149.00
2023-03-04T00:20:15.882Z,150.00
2023-03-04T00:20:49.746Z,151.00
2023-03-04T00:21:22.570Z,151.33
2023-03-04T00:21:54.874Z,152.00
2023-03-04T00:22:27.144Z,152.00
2023-03-04T00:22:59.452Z,152.00
2023-03-04T00:23:31.788Z,152.00
2023-03-04T00:24:04.124Z,152.00
2023-03-04T00:24:36.465Z,152.00
2023-03-04T00:25:08.952Z,152.00
2023-03-04T00:25:43.443Z,152.00
2023-03-04T00:26:16.887Z,152.00
2023-03-04T00:26:49.211Z,151.00
2023-03-04T00:27:21.507Z,149.00
2023-03-04T00:27:53.854Z,148.33
2023-03-04T00:28:26.167Z,148.00
2023-03-04T00:28:58.498Z,146.00
2023-03-04T00:29:30.813Z,139.67
2023-03-04T00:30:03.574Z,135.00
2023-03-04T00:30:35.864Z,131.67
2023-03-04T00:31:08.794Z,129.00
2023-03-04T00:31:41.119Z,126.00
2023-03-04T00:32:13.475Z,127.00
2023-03-04T00:32:45.921Z,130.00
2023-03-04T00:33:18.393Z,130.00
2023-03-04T00:33:50.849Z,130.67
2023-03-04T00:34:23.159Z,132.00
2023-03-04T00:34:55.471Z,132.00
2023-03-04T00:35:27.882Z,131.00
2023-03-04T00:36:00.724Z,128.00
2023-03-04T00:36:33.064Z,124.00
2023-03-04T00:37:05.388Z,122.00
2023-03-04T00:37:37.688Z,120.67
2023-03-04T00:38:09.970Z,121.00
2023-03-04T00:38:42.338Z,122.00
2023-03-04T00:39:15.002Z,122.67
2023-03-04T00:39:47.436Z,123.33
2023-03-04T00:40:19.870Z,122.67
2023-03-04T00:40:52.166Z,121.67
2023-03-04T00:41:24.449Z,121.00
2023-03-04T00:41:56.754Z,120.67
2023-03-04T00:42:29.071Z,120.00
2023-03-04T00:43:01.402Z,120.00
2023-03-04T00:43:33.762Z,120.00
2023-03-04T00:44:06.614Z,120.67
2023-03-04T00:44:39.051Z,121.33
2023-03-04T00:45:11.488Z,122.00
2023-03-04T00:45:43.858Z,122.67
2023-03-04T00:46:16.185Z,123.00
2023-03-04T00:46:48.516Z,123.00
2023-03-04T00:47:20.846Z,123.00
2023-03-04T00:47:53.177Z,123.67
2023-03-04T00:48:26.041Z,124.00
2023-03-04T00:48:58.312Z,124.00
2023-03-04T00:49:30.582Z,124.00
2023-03-04T00:50:04.186Z,124.33
2023-03-04T00:50:37.410Z,124.67
2023-03-04T00:51:09.781Z,123.67
2023-03-04T00:51:42.080Z,123.00
2023-03-04T00:52:14.403Z,122.00
2023-03-04T00:52:46.701Z,122.00
2023-03-04T00:53:18.972Z,121.00
2023-03-04T00:53:52.328Z,120.33
2023-03-04T00:54:24.703Z,116.67
2023-03-04T00:54:56.993Z,110.33
2023-03-04T00:55:29.268Z,102.33
2023-03-04T00:56:01.603Z,96.67
2023-03-04T00:56:33.932Z,94.00
2023-03-04T00:57:06.267Z,94.00
2023-03-04T00:57:38.541Z,95.67
2023-03-04T00:58:10.825Z,97.67
2023-03-04T00:58:43.155Z,98.33
2023-03-04T00:59:15.525Z,98.67
2023-03-04T00:59:47.824Z,99.00
2023-03-04T01:00:20.490Z,99.00
2023-03-04T01:00:52.819Z,99.67
2023-03-04T01:01:25.141Z,100.00
2023-03-04T01:01:57.524Z,99.67
2023-03-04T01:02:29.957Z,99.00
2023-03-04T01:03:02.351Z,99.67
2023-03-04T01:03:34.690Z,100.00
2023-03-04T01:04:06.961Z,101.00
2023-03-04T01:04:39.645Z,101.00
2023-03-04T01:05:12.385Z,102.00
2023-03-04T01:05:44.711Z,102.00
2023-03-04T01:06:17.222Z,102.00
2023-03-04T01:06:49.553Z,102.00
2023-03-04T01:07:22.050Z,103.00
2023-03-04T01:07:54.413Z,103.00
2023-03-04T01:08:26.959Z,103.00
2023-03-04T01:08:59.262Z,103.00
2023-03-04T01:09:31.695Z,103.00
2023-03-04T01:10:05.648Z,103.00
2023-03-04T01:10:37.918Z,104.00
2023-03-04T01:11:10.312Z,104.00
2023-03-04T01:11:42.623Z,104.00
2023-03-04T01:12:14.955Z,104.00
2023-03-04T01:12:47.315Z,104.00
2023-03-04T01:13:19.691Z,104.67
2023-03-04T01:13:52.005Z,106.33
2023-03-04T01:14:24.454Z,107.33
2023-03-04T01:14:56.826Z,109.67
2023-03-04T01:15:29.132Z,112.00
2023-03-04T01:16:01.688Z,114.67
2023-03-04T01:16:34.106Z,115.33
2023-03-04T01:17:06.445Z,115.00
2023-03-04T01:17:38.839Z,115.00
2023-03-04T01:18:11.377Z,115.00
2023-03-04T01:18:43.812Z,115.00
2023-03-04T01:19:16.578Z,115.00
2023-03-04T01:19:49.035Z,114.00
2023-03-04T01:20:21.384Z,114.00
2023-03-04T01:20:53.796Z,114.00
2023-03-04T01:21:26.095Z,112.67
2023-03-04T01:21:58.371Z,111.00
2023-03-04T01:22:30.679Z,107.33
2023-03-04T01:23:02.999Z,103.33
2023-03-04T01:23:35.371Z,97.67
2023-03-04T01:24:07.850Z,89.33
2023-03-04T01:24:40.132Z,83.33
2023-03-04T01:25:12.637Z,78.67
2023-03-04T01:25:44.978Z,75.33
2023-03-04T01:26:17.545Z,74.00
2023-03-04T01:26:49.860Z,75.00
2023-03-04T01:27:22.402Z,74.33
2023-03-04T01:27:54.699Z,71.33
2023-03-04T01:28:26.983Z,66.00
2023-03-04T01:28:59.323Z,62.00
2023-03-04T01:29:31.641Z,60.33
2023-03-04T01:30:05.204Z,60.67
2023-03-04T01:30:37.585Z,60.33
2023-03-04T01:31:09.955Z,61.00
2023-03-04T01:31:42.335Z,62.33
2023-03-04T01:32:14.701Z,58.00
2023-03-04T01:32:47.055Z,52.33
2023-03-04T01:33:19.355Z,48.33
2023-03-04T01:33:51.825Z,45.33
2023-03-04T01:34:24.160Z,44.33
2023-03-04T01:34:56.528Z,44.33
2023-03-04T01:35:28.877Z,44.33
2023-03-04T01:36:01.199Z,44.33
2023-03-04T01:36:33.527Z,44.00
2023-03-04T01:37:06.053Z,42.00
2023-03-04T01:37:38.345Z,41.00
2023-03-04T01:38:10.722Z,40.67
2023-03-04T01:38:43.019Z,40.00
2023-03-04T01:39:15.360Z,39.33
2023-03-04T01:39:47.674Z,40.00
2023-03-04T01:40:20.213Z,39.33
2023-03-04T01:40:53.116Z,39.67
2023-03-04T01:41:27.171Z,39.33
2023-03-04T01:41:59.758Z,39.67
2023-03-04T01:42:34.896Z,40.00
2023-03-04T01:43:11.260Z,40.00
2023-03-04T01:43:45.061Z,40.67
2023-03-04T01:44:17.677Z,41.00
2023-03-04T01:44:51.531Z,40.33
2023-03-04T01:45:24.367Z,39.33
2023-03-04T01:45:58.521Z,38.00
2023-03-04T01:46:32.020Z,37.00
2023-03-04T01:47:04.435Z,37.00
2023-03-04T01:47:36.836Z,37.33
2023-03-04T01:48:12.890Z,38.00
2023-03-04T01:48:45.217Z,39.00
2023-03-04T01:49:18.464Z,39.00
2023-03-04T01:49:55.004Z,40.00
2023-03-04T01:50:34.536Z,40.00
2023-03-04T01:51:14.212Z,40.00
2023-03-04T01:51:50.541Z,41.00
2023-03-04T01:52:23.697Z,41.00
2023-03-04T01:52:56.069Z,41.00
2023-03-04T01:53:29.332Z,41.33
2023-03-04T01:54:01.643Z,42.00
2023-03-04T01:54:33.944Z,42.00
2023-03-04T01:55:15.668Z,42.00
2023-03-04T01:55:48.648Z,42.00
2023-03-04T01:56:31.205Z,42.00
2023-03-04T01:57:28.052Z,42.00
2023-03-04T01:58:00.906Z,42.00
2023-03-04T01:58:33.347Z,42.00
2023-03-04T01:59:18.404Z,42.00
2023-03-04T02:00:15.389Z,42.00
2023-03-04T02:00:47.785Z,41.00
2023-03-04T02:01:20.098Z,40.00
2023-03-04T02:01:55.840Z,39.67
2023-03-04T02:02:28.219Z,39.00
2023-03-04T02:03:11.487Z,38.67
2023-03-04T02:03:43.759Z,38.00
2023-03-04T02:04:17.746Z,37.33
2023-03-04T02:04:50.091Z,37.00
2023-03-04T02:05:22.888Z,35.67
2023-03-04T02:05:56.447Z,34.00
2023-03-04T02:06:28.763Z,31.67
2023-03-04T02:07:03.417Z,29.33
2023-03-04T02:07:36.055Z,27.00
2023-03-04T02:08:10.382Z,25.67
2023-03-04T02:08:42.739Z,24.33
2023-03-04T02:09:16.460Z,24.00
2023-03-04T02:09:49.265Z,24.00
2023-03-04T02:10:22.048Z,24.33
2023-03-04T02:10:55.321Z,25.00
2023-03-04T02:11:27.634Z,25.00
2023-03-04T02:12:00.743Z,25.67
2023-03-04T02:12:33.080Z,26.00
2023-03-04T02:13:06.303Z,26.00
2023-03-04T02:13:38.637Z,26.00
2023-03-04T02:14:12.644Z,26.33
2023-03-04T02:14:44.992Z,27.00
2023-03-04T02:15:17.802Z,27.00
2023-03-04T02:15:50.179Z,27.00
2023-03-04T02:16:22.494Z,28.00
2023-03-04T02:16:54.888Z,28.00
2023-03-04T02:17:28.090Z,28.67
2023-03-04T02:18:01.450Z,29.67
2023-03-04T02:18:33.744Z,31.67
2023-03-04T02:19:34.514Z,33.67
2023-03-04T02:20:21.307Z,36.33
2023-03-04T02:21:11.287Z,37.67
2023-03-04T02:21:43.625Z,39.00
2023-03-04T02:22:16.026Z,39.00
2023-03-04T02:23:01.030Z,39.67
2023-03-04T02:23:46.856Z,40.00
2023-03-04T02:24:47.593Z,41.00
2023-03-04T02:25:26.914Z,41.00
2023-03-04T02:26:15.900Z,41.00
2023-03-04T02:26:48.400Z,40.67
2023-03-04T02:27:22.104Z,40.00
2023-03-04T02:27:54.549Z,39.33
2023-03-04T02:28:26.882Z,38.33
2023-03-04T02:29:00.236Z,37.33
2023-03-04T02:29:32.851Z,37.00
2023-03-04T02:30:06.237Z,37.00
2023-03-04T02:30:38.722Z,37.00
2023-03-04T02:31:33.097Z,37.00
2023-03-04T02:32:05.543Z,37.00
2023-03-04T02:32:37.858Z,38.00
2023-03-04T02:33:18.588Z,38.00
2023-03-04T02:33:52.571Z,38.00
2023-03-04T02:34:29.761Z,38.00
2023-03-04T02:35:02.322Z,38.00
2023-03-04T02:35:34.682Z,38.00
2023-03-04T02:36:07.359Z,38.00
2023-03-04T02:36:40.910Z,38.00
2023-03-04T02:37:13.872Z,38.00
2023-03-04T02:37:46.207Z,38.00
2023-03-04T02:38:18.551Z,38.00
2023-03-04T02:38:53.388Z,38.00
2023-03-04T02:39:32.519Z,38.00
2023-03-04T02:40:06.510Z,38.00
2023-03-04T02:40:43.208Z,38.00
2023-03-04T02:41:20.459Z,38.00
2023-03-04T02:41:55.186Z,38.00
2023-03-04T02:42:27.480Z,38.00
2023-03-04T02:43:00.819Z,37.33
2023-03-04T02:43:33.127Z,37.00
2023-03-04T02:44:20.323Z,37.00
2023-03-04T02:45:00.808Z,37.33
2023-03-04T02:45:33.017Z,38.00
2023-03-04T02:46:06.013Z,38.00
2023-03-04T02:46:38.338Z,38.00
2023-03-04T02:47:12.001Z,38.00
2023-03-04T02:47:44.303Z,39.00
2023-03-04T02:48:21.574Z,39.00
2023-03-04T02:48:54.171Z,39.00
2023-03-04T02:49:29.734Z,39.00
2023-03-04T02:50:02.065Z,38.33
2023-03-04T02:50:39.192Z,38.00
2023-03-04T02:51:11.757Z,38.00
2023-03-04T02:51:44.195Z,38.00
2023-03-04T02:52:22.396Z,38.00
2023-03-04T02:52:54.700Z,37.33
2023-03-04T02:53:27.259Z,37.00
2023-03-04T02:53:59.565Z,37.00
2023-03-04T02:54:32.025Z,37.00
2023-03-04T02:55:04.577Z,37.00
2023-03-04T02:55:37.128Z,36.33
2023-03-04T02:56:09.417Z,36.00
2023-03-04T02:56:52.712Z,36.00
2023-03-04T02:57:25.030Z,35.00
2023-03-04T02:57:57.353Z,35.00
2023-03-04T02:58:29.904Z,35.00
2023-03-04T02:59:02.475Z,34.00
2023-03-04T02:59:36.137Z,34.00
2023-03-04T03:00:08.928Z,34.00
2023-03-04T03:00:41.261Z,34.00
2023-03-04T03:01:13.559Z,34.00
2023-03-04T03:01:46.682Z,34.00
2023-03-04T03:02:18.972Z,34.00
2023-03-04T03:02:51.654Z,34.00
2023-03-04T03:03:23.926Z,34.00
2023-03-04T03:03:56.267Z,34.00
2023-03-04T03:04:29.221Z,34.00
2023-03-04T03:05:01.694Z,34.00
2023-03-04T03:05:35.023Z,34.00
2023-03-04T03:06:07.555Z,34.67
2023-03-04T03:06:40.879Z,35.00
2023-03-04T03:07:13.568Z,35.00
2023-03-04T03:07:45.878Z,35.00
2023-03-04T03:08:18.198Z,35.00
2023-03-04T03:08:50.459Z,35.00
2023-03-04T03:09:22.972Z,35.00
2023-03-04T03:09:55.310Z,35.00
2023-03-04T03:10:27.611Z,35.00
2023-03-04T03:10:59.936Z,35.00
2023-03-04T03:11:32.450Z,35.00
2023-03-04T03:12:04.904Z,35.00
2023-03-04T03:12:37.193Z,35.00
2023-03-04T03:13:09.518Z,34.33
2023-03-04T03:13:41.819Z,34.33
2023-03-04T03:14:14.099Z,35.00
2023-03-04T03:14:46.434Z,35.00
2023-03-04T03:15:19.144Z,35.00
2023-03-04T03:15:51.420Z,35.00
2023-03-04T03:16:24.328Z,35.00
2023-03-04T03:16:56.671Z,35.00
2023-03-04T03:17:29.268Z,35.00
2023-03-04T03:18:01.594Z,35.00
2023-03-04T03:18:33.980Z,35.00
2023-03-04T03:19:06.752Z,35.00
2023-03-04T03:19:39.064Z,35.00
2023-03-04T03:20:13.286Z,35.00
2023-03-04T03:20:45.575Z,35.00
2023-03-04T03:21:18.214Z,35.00
2023-03-04T03:21:50.516Z,35.00
2023-03-04T03:22:22.943Z,35.00
2023-03-04T03:22:55.305Z,35.33
2023-03-04T03:23:27.598Z,36.00
2023-03-04T03:23:59.900Z,36.00
2023-03-04T03:24:32.241Z,36.33
2023-03-04T03:25:05.268Z,37.33
2023-03-04T03:25:38.057Z,38.67
2023-03-04T03:26:10.441Z,40.67
2023-03-04T03:26:42.713Z,42.67
2023-03-04T03:27:14.974Z,43.33
2023-03-04T03:27:47.338Z,44.33
2023-03-04T03:28:19.616Z,45.00
2023-03-04T03:28:51.908Z,45.00
2023-03-04T03:29:24.205Z,46.00
2023-03-04T03:29:56.741Z,46.00
2023-03-04T03:30:29.042Z,46.00
2023-03-04T03:31:01.362Z,46.00
2023-03-04T03:31:33.649Z,46.00
2023-03-04T03:32:06.344Z,46.00
2023-03-04T03:32:38.806Z,46.00
2023-03-04T03:33:11.137Z,46.00
2023-03-04T03:33:43.459Z,46.33
2023-03-04T03:34:15.790Z,47.00
2023-03-04T03:34:48.116Z,47.00
2023-03-04T03:35:20.475Z,47.00
2023-03-04T03:35:52.903Z,47.00
2023-03-04T03:36:25.330Z,48.00
2023-03-04T03:36:58.366Z,48.00
2023-03-04T03:37:30.669Z,48.00
2023-03-04T03:38:02.964Z,48.00
2023-03-04T03:38:35.312Z,48.00
2023-03-04T03:39:07.574Z,48.00
2023-03-04T03:39:39.888Z,48.00
2023-03-04T03:40:12.757Z,48.33
2023-03-04T03:40:45.056Z,49.00
2023-03-04T03:41:17.326Z,50.33
2023-03-04T03:41:50.183Z,52.00
2023-03-04T03:42:22.551Z,52.33
2023-03-04T03:42:54.859Z,53.00
2023-03-04T03:43:27.146Z,53.00
2023-03-04T03:43:59.438Z,53.33
2023-03-04T03:44:31.831Z,54.33
2023-03-04T03:45:04.412Z,56.00
2023-03-04T03:45:36.853Z,58.00
2023-03-04T03:46:09.239Z,59.67
2023-03-04T03:46:41.602Z,60.33
2023-03-04T03:47:14.032Z,61.00
2023-03-04T03:47:46.306Z,60.00
2023-03-04T03:48:18.829Z,60.00
2023-03-04T03:48:51.115Z,60.00
2023-03-04T03:49:23.385Z,59.00
2023-03-04T03:49:55.688Z,59.00
2023-03-04T03:50:29.445Z,59.00
2023-03-04T03:51:01.762Z,58.33
2023-03-04T03:51:34.088Z,58.00
2023-03-04T03:52:08.321Z,58.00
2023-03-04T03:52:40.721Z,57.00
2023-03-04T03:53:13.003Z,56.67
2023-03-04T03:53:45.309Z,56.00
2023-03-04T03:54:17.735Z,56.00
2023-03-04T03:54:50.076Z,56.00
2023-03-04T03:55:22.624Z,55.67
2023-03-04T03:55:54.885Z,55.67
2023-03-04T03:56:27.147Z,55.33
2023-03-04T03:56:59.424Z,56.00
2023-03-04T03:57:31.753Z,56.00
2023-03-04T03:58:04.131Z,56.00
2023-03-04T03:58:36.419Z,56.00
2023-03-04T03:59:08.723Z,56.00
2023-03-04T03:59:41.082Z,56.67
2023-03-04T04:00:14.083Z,57.67
2023-03-04T04:00:46.362Z,59.33
2023-03-04T04:01:18.690Z,61.00
2023-03-04T04:01:51.268Z,63.33
2023-03-04T04:02:24.297Z,67.00
2023-03-04T04:02:59.898Z,69.00
2023-03-04T04:03:32.186Z,70.00
2023-03-04T04:04:04.683Z,71.00
2023-03-04T04:04:36.978Z,71.00
2023-03-04T04:05:09.803Z,71.00
2023-03-04T04:05:42.081Z,70.33
2023-03-04T04:06:14.409Z,70.00
2023-03-04T04:06:46.723Z,69.67
2023-03-04T04:07:19.021Z,69.00
2023-03-04T04:07:53.693Z,69.00
2023-03-04T04:08:26.343Z,69.00
2023-03-04T04:08:58.639Z,69.00
2023-03-04T04:09:30.903Z,68.67
2023-03-04T04:10:04.636Z,68.00
2023-03-04T04:10:37.002Z,68.00
2023-03-04T04:11:13.456Z,68.00
2023-03-04T04:11:45.892Z,68.00
2023-03-04T04:12:19.240Z,69.00
2023-03-04T04:12:51.576Z,70.67
2023-03-04T04:13:23.850Z,71.00
2023-03-04T04:13:56.139Z,71.00
2023-03-04T04:14:28.479Z,71.00
2023-03-04T04:15:00.907Z,70.67
2023-03-04T04:15:33.242Z,70.00
2023-03-04T04:16:06.213Z,70.00
2023-03-04T04:16:38.619Z,71.00
2023-03-04T04:17:11.601Z,72.67
2023-03-04T04:17:43.923Z,73.00
2023-03-04T04:18:16.176Z,72.00
2023-03-04T04:18:48.445Z,71.67
2023-03-04T04:19:21.543Z,71.00
2023-03-04T04:19:53.810Z,70.00
2023-03-04T04:20:26.385Z,70.00
2023-03-04T04:20:58.673Z,70.00
2023-03-04T04:21:31.021Z,70.33
2023-03-04T04:22:03.585Z,71.00
2023-03-04T04:22:35.853Z,71.00
2023-03-04T04:23:08.119Z,71.00
2023-03-04T04:23:40.432Z,70.33
2023-03-04T04:24:12.791Z,67.67
2023-03-04T04:24:45.270Z,62.33
2023-03-04T04:25:17.925Z,60.00
2023-03-04T04:25:50.204Z,58.00
2023-03-04T04:26:22.531Z,54.33
2023-03-04T04:26:54.994Z,51.67
2023-03-04T04:27:27.351Z,50.00
2023-03-04T04:27:59.716Z,47.00
2023-03-04T04:28:32.231Z,45.00
2023-03-04T04:29:04.561Z,45.00
2023-03-04T04:29:37.534Z,45.33
2023-03-04T04:30:10.578Z,45.67
2023-03-04T04:30:43.052Z,46.67
2023-03-04T04:31:15.447Z,47.00
2023-03-04T04:31:47.767Z,48.00
2023-03-04T04:32:20.161Z,48.67
2023-03-04T04:32:52.472Z,51.67
2023-03-04T04:33:24.772Z,55.00
2023-03-04T04:33:57.253Z,56.67
2023-03-04T04:34:30.016Z,58.33
2023-03-04T04:35:02.285Z,59.67
2023-03-04T04:35:36.567Z,62.00
2023-03-04T04:36:14.478Z,66.33
2023-03-04T04:36:46.799Z,72.00
2023-03-04T04:37:19.665Z,78.67
2023-03-04T04:37:51.932Z,85.67
2023-03-04T04:38:24.776Z,91.00
2023-03-04T04:38:57.664Z,93.67
2023-03-04T04:39:29.971Z,94.00
2023-03-04T04:40:02.658Z,93.33
2023-03-04T04:40:35.440Z,92.00
2023-03-04T04:41:26.332Z,92.67
2023-03-04T04:41:58.674Z,107.33
2023-03-04T04:42:31.127Z,114.00
2023-03-04T04:43:03.791Z,108.67
2023-03-04T04:43:36.126Z,103.33
2023-03-04T04:44:09.482Z,103.00
2023-03-04T04:44:41.737Z,102.67
2023-03-04T04:45:14.009Z,102.00
2023-03-04T04:45:46.352Z,99.00
2023-03-04T04:46:19.539Z,97.33
2023-03-04T04:46:51.966Z,96.33
2023-03-04T04:47:24.512Z,95.00
2023-03-04T04:47:57.498Z,93.67
2023-03-04T04:48:29.829Z,88.00
2023-03-04T04:49:02.777Z,78.67
2023-03-04T04:49:35.037Z,67.33
2023-03-04T04:50:07.907Z,60.33
2023-03-04T04:50:40.221Z,54.33
2023-03-04T04:51:13.356Z,50.00
2023-03-04T04:51:46.313Z,48.00
2023-03-04T04:52:18.693Z,46.33
2023-03-04T04:52:51.003Z,45.67
2023-03-04T04:53:23.324Z,45.33
2023-03-04T04:53:55.704Z,45.00
2023-03-04T04:54:28.041Z,45.67
2023-03-04T04:55:00.372Z,48.67
2023-03-04T04:55:34.807Z,52.67
2023-03-04T04:56:16.555Z,54.33
2023-03-04T04:56:48.825Z,55.33
2023-03-04T04:57:21.099Z,56.00
2023-03-04T04:57:53.404Z,56.00
2023-03-04T04:58:25.692Z,55.33
2023-03-04T04:59:01.027Z,53.33
2023-03-04T04:59:33.322Z,51.67
2023-03-04T05:00:06.946Z,50.67
2023-03-04T05:00:39.216Z,50.00
2023-03-04T05:01:12.354Z,50.00
2023-03-04T05:01:44.724Z,50.67
2023-03-04T05:02:17.103Z,52.00
2023-03-04T05:02:49.399Z,53.00
2023-03-04T05:03:23.550Z,57.33
2023-03-04T05:03:56.177Z,66.00
2023-03-04T05:04:28.532Z,71.67
2023-03-04T05:05:00.812Z,74.67
2023-03-04T05:05:33.128Z,75.67
2023-03-04T05:06:08.076Z,77.00
2023-03-04T05:06:40.493Z,76.67
2023-03-04T05:07:12.881Z,76.00
2023-03-04T05:07:45.151Z,78.00
2023-03-04T05:08:17.442Z,83.67
2023-03-04T05:08:50.661Z,83.67
2023-03-04T05:09:23.129Z,83.00
2023-03-04T05:09:55.399Z,85.00
2023-03-04T05:10:27.705Z,88.33
2023-03-04T05:11:00.330Z,90.67
2023-03-04T05:11:32.961Z,102.67
2023-03-04T05:12:05.365Z,123.33
2023-03-04T05:12:37.634Z,112.67
2023-03-04T05:13:09.895Z,98.33
2023-03-04T05:13:42.386Z,95.33
2023-03-04T05:14:14.764Z,95.67
2023-03-04T05:14:47.064Z,112.67
2023-03-04T05:15:19.338Z,170.33
2023-03-04T05:15:54.048Z,207.00
2023-03-04T05:16:26.423Z,184.33
2023-03-04T05:16:58.721Z,152.67
2023-03-04T05:17:30.964Z,135.67
2023-03-04T05:18:03.281Z,126.00
2023-03-04T05:18:35.693Z,125.33
2023-03-04T05:19:08.039Z,127.00
2023-03-04T05:19:40.375Z,123.33
2023-03-04T05:20:12.911Z,121.67
2023-03-04T05:20:45.207Z,120.67
2023-03-04T05:21:17.525Z,118.00
2023-03-04T05:21:49.824Z,111.33
2023-03-04T05:22:22.101Z,109.00
2023-03-04T05:22:54.398Z,93.00
2023-03-04T05:23:29.215Z,72.33
2023-03-04T05:24:01.624Z,65.00
2023-03-04T05:24:34.903Z,64.00
2023-03-04T05:25:07.511Z,65.00
2023-03-04T05:25:39.781Z,69.33
2023-03-04T05:26:15.631Z,74.00
2023-03-04T05:26:47.962Z,79.00
2023-03-04T05:27:20.269Z,81.33
2023-03-04T05:27:52.627Z,82.33
2023-03-04T05:28:24.931Z,83.67
2023-03-04T05:28:57.215Z,89.33
2023-03-04T05:29:29.519Z,93.00
2023-03-04T05:30:01.934Z,93.00
2023-03-04T05:30:34.258Z,92.67
2023-03-04T05:31:07.122Z,91.33
2023-03-04T05:31:39.429Z,91.33
2023-03-04T05:32:11.768Z,93.67
2023-03-04T05:32:44.028Z,111.33
2023-03-04T05:33:17.501Z,125.33
2023-03-04T05:33:49.776Z,117.33
2023-03-04T05:34:22.060Z,113.33
2023-03-04T05:34:54.364Z,111.33
2023-03-04T05:35:28.854Z,110.33
2023-03-04T05:36:02.355Z,110.00
2023-03-04T05:36:34.650Z,109.33
2023-03-04T05:37:06.926Z,109.00
2023-03-04T05:37:39.210Z,108.67
2023-03-04T05:38:14.355Z,107.67
2023-03-04T05:38:46.619Z,103.67
2023-03-04T05:39:18.931Z,90.33
2023-03-04T05:39:51.256Z,75.33
2023-03-04T05:40:25.721Z,70.00
2023-03-04T05:41:00.670Z,71.00
2023-03-04T05:41:32.954Z,69.00
2023-03-04T05:42:05.270Z,67.33
2023-03-04T05:42:37.576Z,68.67
2023-03-04T05:43:10.264Z,68.67
2023-03-04T05:43:42.950Z,68.67
2023-03-04T05:44:15.323Z,67.33
2023-03-04T05:44:47.592Z,65.33
2023-03-04T05:45:19.906Z,88.33
2023-03-04T05:45:52.180Z,290.33
2023-03-04T05:46:25.820Z,411.67
2023-03-04T05:46:58.281Z,346.67
2023-03-04T05:47:30.556Z,246.67
2023-03-04T05:48:03.199Z,203.00
2023-03-04T05:48:35.533Z,173.33
2023-03-04T05:49:07.856Z,160.67
2023-03-04T05:49:41.160Z,156.67
2023-03-04T05:50:13.491Z,181.00
2023-03-04T05:50:46.053Z,197.67
2023-03-04T05:51:19.247Z,170.00
2023-03-04T05:51:51.523Z,138.00
2023-03-04T05:52:23.813Z,107.33
2023-03-04T05:52:56.114Z,102.67
2023-03-04T05:53:29.122Z,114.33
2023-03-04T05:54:01.415Z,110.00
2023-03-04T05:54:33.731Z,108.00
2023-03-04T05:55:06.613Z,107.67
2023-03-04T05:55:38.870Z,108.33
2023-03-04T05:56:16.644Z,109.33
2023-03-04T05:56:48.909Z,103.33
2023-03-04T05:57:21.231Z,102.00
2023-03-04T05:57:53.885Z,98.33
2023-03-04T05:58:26.309Z,88.67
2023-03-04T05:58:59.243Z,73.33
2023-03-04T05:59:31.548Z,62.33
2023-03-04T06:00:05.921Z,56.67
2023-03-04T06:00:38.210Z,57.33
2023-03-04T06:01:11.155Z,55.33
2023-03-04T06:01:43.428Z,53.33
2023-03-04T06:02:15.713Z,49.00
2023-03-04T06:02:48.080Z,45.67
2023-03-04T06:03:22.540Z,45.33
2023-03-04T06:03:54.979Z,49.33
2023-03-04T06:04:27.346Z,57.00
2023-03-04T06:04:59.615Z,56.67
2023-03-04T06:05:31.915Z,56.67
2023-03-04T06:06:04.495Z,60.67
2023-03-04T06:06:36.784Z,64.00
2023-03-04T06:07:09.121Z,67.00
2023-03-04T06:07:43.279Z,69.33
2023-03-04T06:08:15.674Z,72.67
2023-03-04T06:08:47.961Z,82.33
2023-03-04T06:09:21.230Z,90.67
2023-03-04T06:09:53.522Z,103.33
2023-03-04T06:10:25.794Z,114.00
2023-03-04T06:10:59.159Z,125.33
2023-03-04T06:11:31.462Z,121.00
2023-03-04T06:12:03.792Z,118.00
2023-03-04T06:12:36.265Z,113.67
2023-03-04T06:13:09.390Z,110.33
2023-03-04T06:13:41.735Z,108.67
2023-03-04T06:14:14.066Z,107.33
2023-03-04T06:14:46.374Z,108.33
2023-03-04T06:15:18.648Z,106.33
2023-03-04T06:15:56.347Z,103.33
2023-03-04T06:16:28.738Z,94.33
2023-03-04T06:17:01.036Z,80.67
2023-03-04T06:17:33.386Z,71.67
2023-03-04T06:18:07.562Z,66.00
2023-03-04T06:18:39.925Z,63.33
2023-03-04T06:19:12.241Z,61.67
2023-03-04T06:19:44.566Z,59.33
2023-03-04T06:20:16.920Z,58.67
2023-03-04T06:20:49.354Z,55.33
2023-03-04T06:21:21.603Z,50.33
2023-03-04T06:21:53.890Z,47.67
2023-03-04T06:22:26.231Z,46.00
2023-03-04T06:22:58.695Z,43.33
2023-03-04T06:23:31.153Z,40.67
2023-03-04T06:24:03.439Z,38.00
2023-03-04T06:24:36.385Z,37.33
2023-03-04T06:25:08.953Z,38.67
2023-03-04T06:25:41.257Z,40.67
2023-03-04T06:26:15.633Z,42.00
2023-03-04T06:26:48.076Z,44.00
2023-03-04T06:27:20.375Z,46.67
2023-03-04T06:27:54.815Z,48.00
2023-03-04T06:28:28.003Z,47.67
2023-03-04T06:29:00.289Z,46.33
2023-03-04T06:29:32.880Z,45.00
2023-03-04T06:30:05.732Z,45.00
2023-03-04T06:30:38.087Z,44.00
2023-03-04T06:31:10.516Z,43.33
2023-03-04T06:31:42.939Z,41.00
2023-03-04T06:32:15.312Z,39.67
2023-03-04T06:32:48.056Z,38.00
2023-03-04T06:33:20.689Z,37.00
2023-03-04T06:33:52.976Z,36.00
2023-03-04T06:34:25.246Z,36.00
2023-03-04T06:34:57.506Z,36.00
2023-03-04T06:35:30.015Z,34.00
2023-03-04T06:36:02.472Z,33.00
2023-03-04T06:36:35.000Z,34.00
2023-03-04T06:37:07.343Z,34.00
2023-03-04T06:37:39.742Z,34.00
2023-03-04T06:38:12.103Z,34.67
2023-03-04T06:38:44.401Z,35.00
2023-03-04T06:39:17.049Z,35.00
2023-03-04T06:39:49.325Z,35.00
2023-03-04T06:40:21.584Z,35.00
2023-03-04T06:40:56.812Z,35.00
2023-03-04T06:41:29.662Z,36.00
2023-03-04T06:42:02.051Z,36.00
2023-03-04T06:42:35.346Z,36.00
2023-03-04T06:43:07.631Z,37.00
2023-03-04T06:43:40.393Z,37.00
2023-03-04T06:44:13.035Z,37.00
2023-03-04T06:44:45.366Z,37.00
2023-03-04T06:45:17.794Z,38.00
2023-03-04T06:45:50.188Z,38.00
2023-03-04T06:46:22.707Z,39.00
2023-03-04T06:46:55.184Z,40.67
2023-03-04T06:47:28.701Z,41.00
2023-03-04T06:48:00.960Z,41.00
2023-03-04T06:48:33.294Z,41.00
2023-03-04T06:49:05.622Z,41.00
2023-03-04T06:49:37.880Z,40.33
2023-03-04T06:50:12.164Z,41.00
2023-03-04T06:50:44.454Z,40.00
2023-03-04T06:51:16.849Z,40.00
2023-03-04T06:51:49.198Z,40.00
2023-03-04T06:52:21.532Z,40.00
2023-03-04T06:52:57.022Z,40.00
2023-03-04T06:53:29.286Z,40.00
2023-03-04T06:54:01.572Z,40.00
2023-03-04T06:54:33.886Z,40.00
2023-03-04T06:55:07.157Z,39.33
2023-03-04T06:55:39.447Z,38.33
2023-03-04T06:56:16.101Z,38.00
2023-03-04T06:56:48.680Z,37.00
2023-03-04T06:57:20.944Z,37.00
2023-03-04T06:57:53.211Z,36.33
2023-03-04T06:58:25.483Z,36.00
2023-03-04T06:58:57.802Z,36.00
2023-03-04T06:59:30.108Z,36.00
2023-03-04T07:00:03.449Z,36.00
2023-03-04T07:00:35.812Z,36.00
2023-03-04T07:01:19.479Z,36.00
2023-03-04T07:01:51.794Z,36.00
2023-03-04T07:02:24.170Z,35.67
2023-03-04T07:02:58.489Z,35.00